Time;durP1;ratioP1;P1;durP2;ratioP2;P2;SDS_P1;SDS_P2;PMS_P1;PMS_P2;Temp;Humidity;BMP_temperature;BMP_pressure;BME280_temperature;BME280_humidity;BME280_pressure;Samples;Min_cycle;Max_cycle;Signal;HPM_P1;HPM_P2
2022/06/19 00:00:11;;;;;;;;;15.00;13.00;;;;;27.75;65.53;100159.25;5081876;27;45356;-75
2022/06/19 00:02:38;;;;;;;;;16.00;13.33;;;;;27.81;66.99;100166.22;5081615;27;45240;-75
2022/06/19 00:05:03;;;;;;;;;15.00;15.00;;;;;27.90;67.27;100147.19;5078788;27;45495;-74
2022/06/19 00:07:30;;;;;;;;;14.33;14.00;;;;;27.83;65.82;100174.06;5089387;27;45260;-74
2022/06/19 00:09:55;;;;;;;;;17.33;16.00;;;;;27.87;66.26;100185.19;5081353;27;46479;-75
2022/06/19 00:12:20;;;;;;;;;19.67;16.67;;;;;27.88;66.69;100148.59;5081627;27;45362;-75
2022/06/19 00:14:47;;;;;;;;;12.00;10.67;;;;;27.95;65.34;100215.31;5081867;27;45374;-74
2022/06/19 00:17:14;;;;;;;;;19.33;16.67;;;;;27.85;64.04;100226.44;5081893;27;45511;-75
2022/06/19 00:19:40;;;;;;;;;21.00;19.33;;;;;27.82;67.46;100178.75;5081376;27;45418;-74
2022/06/19 00:22:06;;;;;;;;;24.33;22.67;;;;;27.84;69.23;100192.88;5081601;27;45355;-73
2022/06/19 00:24:31;;;;;;;;;20.00;20.00;;;;;27.74;69.75;100204.00;5081320;27;45289;-74
2022/06/19 00:26:57;;;;;;;;;21.00;18.00;;;;;27.77;71.23;100219.78;5081988;27;45983;-73
2022/06/19 00:29:23;;;;;;;;;25.67;24.33;;;;;27.70;70.71;100236.56;5090977;27;46115;-74
2022/06/19 00:31:48;;;;;;;;;23.67;20.33;;;;;27.54;69.59;100203.28;5081502;27;45287;-75
2022/06/19 00:34:14;;;;;;;;;21.33;21.33;;;;;27.43;70.05;100219.03;5080939;27;45303;-74
2022/06/19 00:36:39;;;;;;;;;23.67;22.33;;;;;27.32;70.09;100242.97;5081088;27;45301;-74
2022/06/19 00:39:04;;;;;;;;;26.33;25.00;;;;;27.24;71.74;100243.66;5081273;27;45437;-74
2022/06/19 00:41:39;;;;;;;;;21.33;21.00;;;;;27.08;70.24;100267.63;5081327;27;45480;-73
2022/06/19 00:44:08;;;;;;;;;21.67;21.00;;;;;26.96;70.98;100260.72;5081360;27;45341;-73
2022/06/19 00:46:45;;;;;;;;;22.67;20.00;;;;;26.82;70.14;100296.06;5081080;27;45410;-73
2022/06/19 00:49:34;;;;;;;;;19.00;18.00;;;;;26.71;70.75;100245.56;5081079;27;45352;-73
2022/06/19 00:52:05;;;;;;;;;17.00;15.33;;;;;26.67;70.50;100282.69;5081023;27;45414;-74
2022/06/19 00:54:41;;;;;;;;;19.00;16.33;;;;;26.51;70.20;100301.19;5095425;27;45456;-75
2022/06/19 00:57:08;;;;;;;;;19.00;16.67;;;;;26.38;68.86;100287.16;5081177;27;45344;-74
2022/06/19 00:59:34;;;;;;;;;15.00;12.67;;;;;26.18;71.21;100304.53;5080966;27;47286;-74
2022/06/19 01:02:02;;;;;;;;;13.33;12.67;;;;;25.90;67.00;100299.69;5080649;27;45512;-76
2022/06/19 01:04:33;;;;;;;;;13.33;13.00;;;;;25.67;68.59;100253.13;5089329;27;45260;-74
2022/06/19 01:06:59;;;;;;;;;12.67;12.67;;;;;25.44;70.48;100309.09;5080988;27;45288;-73
2022/06/19 01:09:24;;;;;;;;;14.67;14.67;;;;;25.31;69.62;100289.59;5080485;27;46197;-73
2022/06/19 01:11:50;;;;;;;;;10.67;10.67;;;;;25.24;68.53;100280.97;5080675;27;45341;-73
2022/06/19 01:14:20;;;;;;;;;11.67;11.00;;;;;25.11;69.38;100341.44;5081170;27;45276;-73
2022/06/19 01:16:46;;;;;;;;;12.00;10.00;;;;;24.98;68.98;100262.13;5081630;27;46182;-74
2022/06/19 01:19:21;;;;;;;;;13.00;13.00;;;;;24.88;70.07;100336.41;5089815;27;46162;-73
2022/06/19 01:22:15;;;;;;;;;15.00;13.00;;;;;24.57;67.53;100285.72;5080332;27;45500;-75
2022/06/19 01:25:05;;;;;;;;;15.67;13.00;;;;;24.38;67.97;100320.03;5080511;27;45315;-74
2022/06/19 01:30:20;;;;;;;;;16.33;14.33;;;;;23.93;68.45;100301.69;5080204;27;45276;-74
2022/06/19 01:32:49;;;;;;;;;15.33;15.00;;;;;23.79;69.96;100298.78;5080423;27;45271;-74
2022/06/19 01:35:17;;;;;;;;;17.33;15.67;;;;;23.72;71.00;100312.59;5080740;27;45339;-74
2022/06/19 01:37:43;;;;;;;;;15.00;14.00;;;;;23.57;70.80;100322.38;5080330;27;45425;-73
2022/06/19 01:40:24;;;;;;;;;16.33;16.33;;;;;23.40;68.27;100321.84;5080054;27;45295;-74
2022/06/19 01:42:50;;;;;;;;;17.00;16.67;;;;;23.28;69.87;100325.59;5080054;27;45396;-73
2022/06/19 01:45:15;;;;;;;;;20.33;20.00;;;;;23.06;69.78;100312.31;5079739;27;45311;-74
2022/06/19 01:47:42;;;;;;;;;23.33;22.00;;;;;22.86;70.50;100327.44;5061341;28;46210;-73
2022/06/19 01:50:12;;;;;;;;;18.33;17.33;;;;;22.73;70.26;100320.63;5080155;27;46106;-73
2022/06/19 01:52:38;;;;;;;;;18.00;16.00;;;;;22.65;70.83;100345.50;5082400;27;45297;-74
2022/06/19 01:55:14;;;;;;;;;20.00;19.67;;;;;22.53;70.22;100353.84;5092162;27;45339;-76
2022/06/19 01:57:44;;;;;;;;;20.00;19.33;;;;;22.41;71.60;100343.22;5075678;27;47058;-76
2022/06/19 02:00:14;;;;;;;;;21.00;18.67;;;;;22.35;71.48;100341.59;5079984;27;45307;-77
2022/06/19 02:02:42;;;;;;;;;22.00;18.00;;;;;22.26;71.63;100339.38;5079756;27;45586;-77
2022/06/19 02:05:09;;;;;;;;;17.67;15.67;;;;;22.28;71.83;100353.47;5088553;27;45332;-76
2022/06/19 02:07:34;;;;;;;;;15.67;14.33;;;;;22.15;71.84;100353.94;5079830;27;45374;-76
2022/06/19 02:10:01;;;;;;;;;20.33;18.00;;;;;22.17;72.44;100359.88;5079440;27;45227;-76
2022/06/19 02:12:31;;;;;;;;;16.00;16.00;;;;;22.13;70.49;100369.59;5079869;27;45239;-76
2022/06/19 02:14:56;;;;;;;;;18.33;14.33;;;;;22.02;70.12;100360.59;5061607;28;45422;-76
2022/06/19 02:17:30;;;;;;;;;12.33;10.67;;;;;21.85;70.60;100339.13;5079787;27;45317;-76
2022/06/19 02:19:56;;;;;;;;;17.00;14.33;;;;;21.78;70.71;100350.16;5079760;27;45369;-76
2022/06/19 02:22:21;;;;;;;;;13.67;13.67;;;;;21.74;69.80;100357.13;5079563;27;45323;-76
2022/06/19 02:24:47;;;;;;;;;15.67;12.00;;;;;21.73;69.83;100372.53;5079273;27;45387;-76
2022/06/19 02:27:12;;;;;;;;;14.67;12.33;;;;;21.65;70.59;100373.84;5079445;27;45314;-76
2022/06/19 02:29:40;;;;;;;;;13.67;13.00;;;;;21.58;71.58;100367.84;5079530;27;45264;-76
2022/06/19 02:32:20;;;;;;;;;11.67;11.33;;;;;21.43;71.00;100352.31;5079756;28;45229;-77
2022/06/19 02:34:46;;;;;;;;;16.00;16.00;;;;;21.38;72.24;100361.19;5079929;28;45359;-76
2022/06/19 02:37:24;;;;;;;;;14.67;13.33;;;;;21.38;72.18;100409.00;5080432;27;45866;-76
2022/06/19 02:39:59;;;;;;;;;11.67;11.00;;;;;21.37;72.66;100408.19;5086753;27;45495;-76
2022/06/19 02:42:40;;;;;;;;;12.67;12.67;;;;;21.38;72.15;100396.31;5079421;28;45317;-76
2022/06/19 02:45:12;;;;;;;;;12.33;12.00;;;;;21.40;72.40;100398.78;5061250;28;45490;-76
2022/06/19 02:47:38;;;;;;;;;15.00;14.33;;;;;21.38;72.14;100384.69;5060976;28;48111;-76
2022/06/19 02:50:06;;;;;;;;;16.33;14.67;;;;;21.35;71.84;100377.91;5079458;28;45303;-76
2022/06/19 02:52:31;;;;;;;;;15.00;13.67;;;;;21.27;72.13;100406.22;5080136;27;45424;-76
2022/06/19 02:54:57;;;;;;;;;14.00;12.67;;;;;21.29;72.33;100414.06;5092294;27;45401;-75
2022/06/19 02:57:22;;;;;;;;;16.00;16.00;;;;;21.33;71.55;100395.47;5078832;27;45299;-76
2022/06/19 02:59:47;;;;;;;;;16.00;15.00;;;;;21.29;71.84;100376.22;5078886;27;46185;-76
2022/06/19 03:02:14;;;;;;;;;14.33;14.33;;;;;21.26;72.04;100372.16;5079109;27;45521;-76
2022/06/19 03:04:53;;;;;;;;;17.33;14.67;;;;;21.28;72.61;100397.03;5087869;27;45523;-76
2022/06/19 03:07:18;;;;;;;;;16.33;15.00;;;;;21.28;72.42;100437.56;5079332;28;45499;-76
2022/06/19 03:09:44;;;;;;;;;17.67;14.33;;;;;21.17;69.76;100614.97;5078692;27;45232;-76
2022/06/19 03:12:10;;;;;;;;;14.33;14.00;;;;;21.06;71.07;100683.44;5069876;27;45526;-76
2022/06/19 03:14:36;;;;;;;;;13.00;13.00;;;;;20.94;71.32;100551.16;5084171;27;45347;-76
2022/06/19 03:17:01;;;;;;;;;14.33;12.33;;;;;20.93;71.76;100606.25;5067796;27;47292;-76
2022/06/19 03:19:26;;;;;;;;;14.67;13.33;;;;;20.78;70.28;100658.94;5086093;27;45300;-76
2022/06/19 03:21:52;;;;;;;;;13.00;13.00;;;;;20.77;71.81;100597.88;5078909;27;45383;-77
2022/06/19 03:24:18;;;;;;;;;13.33;12.33;;;;;20.80;73.05;100602.00;5060509;28;45411;-76
2022/06/19 03:26:43;;;;;;;;;12.00;11.67;;;;;20.81;71.78;100571.22;5078539;28;45378;-76
2022/06/19 03:29:09;;;;;;;;;13.67;13.67;;;;;20.85;72.49;100595.81;5078681;28;46081;-76
2022/06/19 03:31:35;;;;;;;;;13.33;12.00;;;;;20.79;72.91;100576.84;5078795;28;45435;-76
2022/06/19 03:34:00;;;;;;;;;16.67;15.67;;;;;20.79;72.96;100593.06;5079112;27;45520;-75
2022/06/19 03:36:26;;;;;;;;;16.67;15.00;;;;;20.87;73.58;100561.28;5078464;27;45431;-75
2022/06/19 03:38:51;;;;;;;;;15.33;14.33;;;;;20.82;71.88;100516.13;5078338;27;45269;-76
2022/06/19 03:41:17;;;;;;;;;11.67;11.00;;;;;20.87;72.33;100556.72;5078616;28;45260;-76
2022/06/19 03:43:43;;;;;;;;;13.00;12.00;;;;;20.79;69.70;100547.16;5078719;27;45393;-76
2022/06/19 03:46:16;;;;;;;;;14.33;13.00;;;;;20.75;70.94;100545.19;5078730;27;45478;-76
2022/06/19 03:48:50;;;;;;;;;15.33;14.67;;;;;20.75;72.05;100567.63;5078411;27;46199;-76
2022/06/19 03:51:16;;;;;;;;;11.67;11.67;;;;;20.68;70.77;100593.94;5078691;27;45355;-76
2022/06/19 03:53:43;;;;;;;;;14.67;14.67;;;;;20.65;71.43;100589.06;5075331;27;45324;-76
2022/06/19 03:56:14;;;;;;;;;14.67;14.00;;;;;20.70;71.32;100572.94;5081626;27;45458;-76
2022/06/19 03:58:45;;;;;;;;;13.33;12.00;;;;;20.66;71.96;100574.50;5077977;27;45291;-76
2022/06/19 04:01:25;;;;;;;;;13.00;11.33;;;;;20.74;72.13;100600.28;5078033;28;45300;-76
2022/06/19 04:03:53;;;;;;;;;10.67;10.67;;;;;20.73;72.21;100595.91;5061687;27;45484;-76
2022/06/19 04:06:21;;;;;;;;;14.00;13.00;;;;;20.73;71.87;100596.75;5084777;27;45410;-75
2022/06/19 04:08:48;;;;;;;;;14.00;12.67;;;;;20.69;71.20;100606.41;5078269;27;46057;-76
2022/06/19 04:11:15;;;;;;;;;13.33;11.00;;;;;20.72;72.73;100605.91;5081503;27;45438;-76
2022/06/19 04:13:41;;;;;;;;;12.00;10.00;;;;;20.69;72.15;100630.69;5082086;27;45334;-75
2022/06/19 04:16:08;;;;;;;;;10.00;9.33;;;;;20.72;71.55;100600.50;5081442;27;45310;-75
2022/06/19 04:18:34;;;;;;;;;11.00;11.00;;;;;20.68;71.59;100577.75;5081655;27;46575;-76
2022/06/19 04:21:00;;;;;;;;;11.33;10.33;;;;;20.66;71.88;100591.53;5081650;27;45266;-75
2022/06/19 04:23:27;;;;;;;;;14.33;12.67;;;;;20.70;72.55;100562.13;5081551;27;45291;-75
2022/06/19 04:25:53;;;;;;;;;10.00;9.33;;;;;20.63;72.44;100602.81;5081410;27;45553;-76
2022/06/19 04:28:22;;;;;;;;;12.33;10.00;;;;;20.51;71.93;100619.09;5081218;27;46196;-75
2022/06/19 04:30:49;;;;;;;;;9.67;9.67;;;;;20.54;71.74;100645.59;5081523;27;45280;-74
2022/06/19 04:33:16;;;;;;;;;11.00;9.00;;;;;20.51;72.52;100629.06;5081627;27;45631;-76
2022/06/19 04:35:42;;;;;;;;;10.67;10.33;;;;;20.53;72.47;100606.13;5070019;27;46164;-76
2022/06/19 04:38:08;;;;;;;;;11.33;9.33;;;;;20.50;72.53;100616.63;5088539;27;46096;-76
2022/06/19 04:40:35;;;;;;;;;14.00;13.33;;;;;20.53;72.69;100581.84;5081121;27;45377;-75
2022/06/19 04:43:00;;;;;;;;;12.67;10.00;;;;;20.53;73.21;100562.94;5081291;27;45463;-75
2022/06/19 04:45:26;;;;;;;;;9.67;8.33;;;;;20.52;73.45;100517.31;5080868;27;45432;-76
2022/06/19 04:47:51;;;;;;;;;12.67;12.67;;;;;20.39;73.12;100478.00;5081158;27;45351;-76
2022/06/19 04:50:17;;;;;;;;;12.00;11.00;;;;;20.38;72.91;100487.97;5080954;27;45249;-77
2022/06/19 04:52:42;;;;;;;;;11.33;11.00;;;;;20.38;72.24;100501.44;5084249;27;45271;-76
2022/06/19 04:55:11;;;;;;;;;11.00;11.00;;;;;20.34;72.35;100484.13;5099067;27;45616;-76
2022/06/19 04:57:36;;;;;;;;;12.67;12.67;;;;;20.36;72.85;100490.09;5082462;27;47304;-76
2022/06/19 05:00:10;;;;;;;;;14.00;12.33;;;;;20.37;72.92;100493.59;5091269;27;45341;-78
2022/06/19 05:02:35;;;;;;;;;12.33;11.33;;;;;20.30;73.00;100489.19;5062901;28;45475;-76
2022/06/19 05:05:00;;;;;;;;;11.00;9.33;;;;;20.32;73.43;100494.34;5074195;27;45955;-76
2022/06/19 05:07:25;;;;;;;;;12.33;11.00;;;;;20.31;72.39;100493.53;5067206;27;47131;-75
2022/06/19 05:09:51;;;;;;;;;11.00;11.00;;;;;20.22;73.61;100486.06;5081675;27;47932;-76
2022/06/19 05:12:16;;;;;;;;;11.67;10.67;;;;;20.22;73.11;100504.97;5093266;27;45224;-77
2022/06/19 05:14:42;;;;;;;;;13.67;10.67;;;;;20.27;73.97;100529.34;5081696;27;45394;-76
2022/06/19 05:17:07;;;;;;;;;13.00;12.00;;;;;20.29;73.56;100536.13;5068246;27;47190;-76
2022/06/19 05:19:32;;;;;;;;;11.33;9.67;;;;;20.31;73.20;100530.47;5082840;27;45942;-76
2022/06/19 05:22:01;;;;;;;;;11.33;9.33;;;;;20.39;73.28;100558.94;5082892;27;45324;-76
2022/06/19 05:24:26;;;;;;;;;11.33;10.67;;;;;20.38;73.29;100489.84;5080322;27;45381;-76
2022/06/19 05:26:52;;;;;;;;;12.00;10.67;;;;;20.34;74.03;100397.78;5082926;27;45836;-75
2022/06/19 05:29:18;;;;;;;;;13.33;11.00;;;;;20.25;73.44;100358.78;5071859;27;45214;-74
2022/06/19 05:31:44;;;;;;;;;15.33;13.67;;;;;20.15;75.44;100352.19;5086322;27;45294;-76
2022/06/19 05:34:09;;;;;;;;;13.33;10.67;;;;;20.08;76.19;100348.03;5080621;27;45167;-77
2022/06/19 05:36:34;;;;;;;;;15.00;13.67;;;;;20.02;76.79;100418.06;5075096;27;47042;-77
2022/06/19 05:39:00;;;;;;;;;12.33;11.33;;;;;20.03;76.66;100453.97;5081871;27;45469;-76
2022/06/19 05:41:28;;;;;;;;;13.67;13.33;;;;;20.05;76.92;100439.16;5085580;27;45381;-75
2022/06/19 05:43:53;;;;;;;;;13.67;12.33;;;;;20.05;77.57;100424.84;5083520;27;45992;-76
2022/06/19 05:46:20;;;;;;;;;17.67;13.00;;;;;20.06;77.95;100430.00;5080528;27;45346;-76
2022/06/19 05:48:46;;;;;;;;;15.00;11.67;;;;;20.04;77.88;100431.31;5080504;27;45376;-75
2022/06/19 05:51:14;;;;;;;;;12.33;12.33;;;;;20.01;78.13;100454.22;5088357;27;45205;-76
2022/06/19 05:53:43;;;;;;;;;13.67;12.00;;;;;20.00;78.55;100463.34;5100584;27;45300;-75
2022/06/19 05:56:09;;;;;;;;;12.00;12.00;;;;;19.97;78.83;100455.75;5083936;27;45272;-76
2022/06/19 05:58:35;;;;;;;;;14.33;10.67;;;;;20.05;78.95;100449.97;5083977;27;45272;-73
2022/06/19 06:01:02;;;;;;;;;14.00;13.67;;;;;20.05;78.36;100433.78;5079951;27;45298;-75
2022/06/19 06:03:27;;;;;;;;;11.00;11.00;;;;;20.03;78.74;100441.28;5062279;28;45562;-74
2022/06/19 06:05:53;;;;;;;;;14.33;13.33;;;;;20.01;79.43;100440.72;5084494;27;47050;-73
2022/06/19 06:08:19;;;;;;;;;14.67;14.00;;;;;20.01;79.95;100427.25;5067610;28;45355;-75
2022/06/19 06:10:47;;;;;;;;;13.33;12.00;;;;;19.97;79.99;100400.97;5085351;27;45546;-76
2022/06/19 06:13:13;;;;;;;;;14.00;13.00;;;;;19.92;79.59;100385.53;5099784;27;45522;-76
2022/06/19 06:15:38;;;;;;;;;15.33;14.33;;;;;19.88;79.85;100366.34;5098667;27;45351;-75
2022/06/19 06:18:03;;;;;;;;;17.33;17.00;;;;;19.91;80.22;100365.03;5081475;28;45318;-76
2022/06/19 06:20:30;;;;;;;;;17.00;14.33;;;;;19.91;79.74;100371.22;5080547;27;45306;-76
2022/06/19 06:22:55;;;;;;;;;19.33;17.33;;;;;19.87;80.73;100370.09;5080002;27;45257;-75
2022/06/19 06:25:21;;;;;;;;;14.33;14.00;;;;;19.88;79.67;100368.22;5079602;27;45306;-75
2022/06/19 06:27:47;;;;;;;;;16.00;16.00;;;;;19.87;79.89;100401.63;5079569;27;45316;-75
2022/06/19 06:30:13;;;;;;;;;16.67;15.00;;;;;19.92;80.75;100442.16;5079610;27;45240;-75
2022/06/19 06:32:39;;;;;;;;;13.00;12.00;;;;;19.97;80.59;100434.16;5078566;27;45307;-75
2022/06/19 06:35:05;;;;;;;;;14.33;13.67;;;;;19.98;80.69;100419.59;5060931;28;47056;-75
2022/06/19 06:37:30;;;;;;;;;16.33;13.33;;;;;20.03;80.13;100424.31;5079075;27;45513;-75
2022/06/19 06:39:55;;;;;;;;;14.33;12.67;;;;;20.10;79.80;100451.09;5079742;28;45367;-76
2022/06/19 06:42:21;;;;;;;;;16.00;13.67;;;;;20.12;79.98;100457.91;5079313;27;45654;-76
2022/06/19 06:44:46;;;;;;;;;13.33;12.33;;;;;20.24;79.45;100451.59;5078897;27;47026;-76
2022/06/19 06:47:12;;;;;;;;;15.33;13.67;;;;;20.34;79.20;100496.78;5079612;27;45363;-76
2022/06/19 06:49:37;;;;;;;;;12.67;12.00;;;;;20.29;78.73;100501.03;5079424;27;45472;-75
2022/06/19 06:52:07;;;;;;;;;15.33;15.33;;;;;20.40;78.85;100493.94;5093902;27;45428;-75
2022/06/19 06:54:35;;;;;;;;;14.33;14.33;;;;;20.45;78.70;100512.09;5095492;27;45352;-76
2022/06/19 06:57:00;;;;;;;;;13.33;13.33;;;;;20.58;78.79;100518.19;5079203;27;45514;-75
2022/06/19 06:59:25;;;;;;;;;16.00;14.67;;;;;20.59;77.27;100485.56;5078951;28;45546;-75
2022/06/19 07:01:51;;;;;;;;;13.00;11.00;;;;;20.60;77.79;100481.00;5078953;27;45371;-77
2022/06/19 07:04:16;;;;;;;;;12.67;11.00;;;;;20.64;78.36;100428.94;5087890;27;45304;-76
2022/06/19 07:06:41;;;;;;;;;13.67;13.33;;;;;20.72;77.47;100403.41;5079249;28;45396;-75
2022/06/19 07:09:07;;;;;;;;;14.33;13.00;;;;;20.69;77.52;100391.19;5079165;27;45488;-75
2022/06/19 07:11:39;;;;;;;;;13.67;13.00;;;;;20.75;77.16;100432.63;5078842;27;45354;-76
2022/06/19 07:14:05;;;;;;;;;14.67;14.33;;;;;20.73;77.85;100444.72;5079183;28;46122;-77
2022/06/19 07:16:30;;;;;;;;;11.33;11.33;;;;;20.77;77.41;100429.66;5089314;27;45290;-78
2022/06/19 07:18:56;;;;;;;;;13.67;13.67;;;;;20.78;78.27;100447.50;5099013;27;45412;-78
2022/06/19 07:21:21;;;;;;;;;16.00;13.33;;;;;20.79;78.69;100454.50;5089505;27;45312;-79
2022/06/19 07:23:46;;;;;;;;;14.33;13.00;;;;;20.73;79.15;100418.53;5093256;27;45987;-79
2022/06/19 07:26:14;;;;;;;;;13.33;13.33;;;;;20.80;77.96;100399.47;5087883;27;45356;-78
2022/06/19 07:28:41;;;;;;;;;16.00;14.33;;;;;20.87;78.02;100380.34;5090162;27;45331;-78
2022/06/19 07:31:06;;;;;;;;;14.00;14.00;;;;;20.93;78.64;100376.69;5105007;27;45165;-78
2022/06/19 07:33:36;;;;;;;;;16.00;12.67;;;;;20.92;78.85;100383.16;5100124;27;45248;-77
2022/06/19 07:36:03;;;;;;;;;15.00;14.00;;;;;20.94;78.16;100432.31;5106724;27;45241;-76
2022/06/19 07:38:28;;;;;;;;;15.33;13.33;;;;;21.00;78.28;100519.63;5088098;28;45421;-77
2022/06/19 07:40:54;;;;;;;;;14.67;13.00;;;;;21.06;77.70;100584.28;5094553;27;45513;-78
2022/06/19 07:43:19;;;;;;;;;17.00;16.00;;;;;21.04;76.39;100613.44;5089871;28;46222;-79
2022/06/19 07:45:44;;;;;;;;;16.33;15.00;;;;;21.00;76.62;100633.09;5090662;27;45912;-78
2022/06/19 07:50:55;;;;;;;;;24.00;24.00;;;;;20.94;76.54;100651.09;5109086;27;45373;-79
2022/06/19 07:53:20;;;;;;;;;22.00;21.33;;;;;20.91;76.47;100660.53;5098919;27;45226;-78
2022/06/19 07:55:47;;;;;;;;;14.33;12.00;;;;;20.80;76.17;100677.59;5087698;28;46153;-77
2022/06/19 07:58:12;;;;;;;;;19.00;14.00;;;;;20.72;76.10;100681.53;5093236;27;45483;-77
2022/06/19 08:00:38;;;;;;;;;12.00;12.00;;;;;20.57;76.50;100663.16;5089056;27;45292;-77
2022/06/19 08:03:04;;;;;;;;;12.33;12.33;;;;;20.67;76.69;100678.72;5099900;27;45284;-77
2022/06/19 08:05:32;;;;;;;;;11.33;10.00;;;;;20.62;76.30;100692.16;5109179;27;45331;-80
2022/06/19 08:07:59;;;;;;;;;12.67;11.67;;;;;20.59;77.00;100693.44;5069600;28;45276;-79
2022/06/19 08:10:29;;;;;;;;;13.00;12.00;;;;;20.71;77.37;100698.75;5106145;27;45375;-79
2022/06/19 08:12:55;;;;;;;;;13.00;11.33;;;;;20.83;77.36;100730.31;5092322;27;46385;-80
2022/06/19 08:15:21;;;;;;;;;14.33;13.67;;;;;20.90;76.76;100718.31;5084250;27;45463;-79
2022/06/19 08:17:47;;;;;;;;;16.67;15.00;;;;;20.97;76.94;100677.63;5079203;27;45457;-81
2022/06/19 08:20:13;;;;;;;;;16.00;15.67;;;;;21.06;77.80;100678.84;5097006;27;45511;-83
2022/06/19 08:22:40;;;;;;;;;14.00;13.33;;;;;21.06;75.97;100703.16;5086813;27;47982;-78
2022/06/19 08:25:07;;;;;;;;;13.67;13.67;;;;;21.13;76.88;100705.69;5092508;27;45331;-80
2022/06/19 08:27:37;;;;;;;;;12.67;11.00;;;;;21.12;76.54;100727.53;5098231;27;45257;-81
2022/06/19 08:30:05;;;;;;;;;10.33;10.33;;;;;21.11;76.42;100712.41;5082589;27;45466;-82
2022/06/19 08:32:31;;;;;;;;;14.33;14.33;;;;;21.09;77.27;100719.94;5102957;27;45540;-80
2022/06/19 08:34:56;;;;;;;;;13.67;13.00;;;;;21.00;76.53;100735.72;5080546;27;45431;-80
2022/06/19 08:37:21;;;;;;;;;13.00;11.33;;;;;20.94;77.13;100675.41;5104057;27;45366;-82
2022/06/19 08:39:47;;;;;;;;;11.33;11.00;;;;;20.94;77.43;100641.13;5082912;27;46103;-82
2022/06/19 08:42:27;;;;;;;;;12.67;11.67;;;;;20.99;78.43;100617.94;5103001;27;45300;-79
2022/06/19 08:44:58;;;;;;;;;12.00;12.00;;;;;20.91;77.48;100582.19;5087477;27;45710;-78
2022/06/19 08:47:32;;;;;;;;;11.67;11.67;;;;;20.88;77.68;100557.53;5083473;27;45528;-77
2022/06/19 08:50:34;;;;;;;;;13.33;12.33;;;;;20.87;77.31;100548.63;5099599;27;46280;-76
2022/06/19 08:53:28;;;;;;;;;12.00;11.33;;;;;20.82;77.49;100508.03;5098947;27;46009;-77
2022/06/19 08:56:09;;;;;;;;;11.67;11.67;;;;;20.79;77.97;100468.84;5110623;27;44776;-78
2022/06/19 08:58:52;;;;;;;;;11.67;11.67;;;;;20.63;77.42;100461.59;5100975;27;45493;-79
2022/06/19 09:01:40;;;;;;;;;11.00;11.00;;;;;20.72;76.79;100476.31;5083866;27;46452;-78
2022/06/19 09:07:37;;;;;;;;;12.00;11.67;;;;;20.79;77.15;100466.13;5095003;27;45365;-79
2022/06/19 09:10:11;;;;;;;;;13.00;12.00;;;;;20.91;77.04;100484.13;5097176;27;45358;-78
2022/06/19 09:13:01;;;;;;;;;12.33;12.33;;;;;20.98;78.44;100503.66;5095739;27;45302;-79
2022/06/19 09:15:40;;;;;;;;;12.67;12.00;;;;;21.05;77.37;100492.69;5080979;27;45376;-80
2022/06/19 09:18:17;;;;;;;;;13.00;12.33;;;;;21.12;77.35;100511.41;5083409;27;45341;-80
2022/06/19 09:20:46;;;;;;;;;9.33;9.00;;;;;21.24;76.21;100576.97;5090638;27;45454;-80
2022/06/19 09:23:47;;;;;;;;;15.67;13.00;;;;;21.38;76.37;100609.84;5091659;27;45398;-78
2022/06/19 09:26:26;;;;;;;;;11.67;11.67;;;;;21.62;75.85;100617.72;5068826;27;48297;-79
2022/06/19 09:29:00;;;;;;;;;15.67;15.00;;;;;21.79;74.62;100606.84;5096118;27;45320;-78
2022/06/19 09:31:53;;;;;;;;;17.33;15.33;;;;;21.89;75.26;100611.56;5093570;27;45432;-79
2022/06/19 09:34:30;;;;;;;;;14.33;14.33;;;;;21.96;74.95;100621.38;5080512;27;45382;-80
2022/06/19 09:37:02;;;;;;;;;12.33;12.33;;;;;22.01;73.67;100624.13;5096374;27;45478;-79
2022/06/19 09:39:39;;;;;;;;;12.67;12.67;;;;;22.06;73.21;100614.16;5099945;27;45259;-81
2022/06/19 09:42:14;;;;;;;;;16.00;15.33;;;;;22.21;72.72;100618.13;5084251;27;45352;-79
2022/06/19 09:44:53;;;;;;;;;15.00;15.00;;;;;22.36;72.37;100630.97;5079733;27;45500;-79
2022/06/19 09:47:32;;;;;;;;;13.67;12.33;;;;;22.51;72.43;100632.97;5077534;27;47367;-80
2022/06/19 09:50:04;;;;;;;;;21.67;19.67;;;;;22.68;72.04;100632.06;5099868;27;45690;-80
2022/06/19 09:52:53;;;;;;;;;20.33;19.67;;;;;22.89;72.09;100641.16;5088640;27;45379;-80
2022/06/19 09:55:35;;;;;;;;;18.00;17.00;;;;;23.05;70.89;100627.75;5082686;27;46228;-79
2022/06/19 09:58:07;;;;;;;;;15.33;13.33;;;;;23.20;71.74;100616.16;5069319;28;48321;-77
2022/06/19 10:00:35;;;;;;;;;19.33;18.33;;;;;23.32;72.08;100615.97;5094400;27;45420;-77
2022/06/19 10:03:10;;;;;;;;;17.33;16.33;;;;;23.36;70.86;100629.78;5082565;27;45389;-78
2022/06/19 10:05:47;;;;;;;;;14.67;14.00;;;;;23.47;72.53;100634.22;5086796;27;45323;-77
2022/06/19 10:08:31;;;;;;;;;16.00;14.67;;;;;23.51;70.09;100640.75;5064935;27;48392;-78
2022/06/19 10:11:09;;;;;;;;;18.00;17.67;;;;;23.52;69.20;100650.50;5097412;27;45249;-79
2022/06/19 10:13:47;;;;;;;;;17.33;16.33;;;;;23.61;71.25;100656.25;5083685;27;45262;-77
2022/06/19 10:16:25;;;;;;;;;16.33;15.00;;;;;23.60;66.86;100632.09;5086188;27;45249;-80
2022/06/19 10:18:52;;;;;;;;;22.33;21.33;;;;;23.67;68.51;100649.75;5071095;28;47062;-78
2022/06/19 10:24:38;;;;;;;;;19.00;18.67;;;;;23.84;70.64;100648.75;5093009;27;45549;-79
2022/06/19 10:27:18;;;;;;;;;18.67;18.00;;;;;23.90;68.73;100636.81;5101254;27;45354;-79
2022/06/19 10:30:06;;;;;;;;;21.00;19.67;;;;;24.07;69.60;100646.63;5084389;27;48474;-79
2022/06/19 10:32:42;;;;;;;;;16.00;16.00;;;;;24.19;70.24;100641.00;5079730;27;45351;-78
2022/06/19 10:35:25;;;;;;;;;21.00;20.33;;;;;24.50;69.89;100629.34;5088555;27;45339;-79
2022/06/19 10:37:50;;;;;;;;;17.00;17.00;;;;;24.75;70.24;100623.06;5105661;27;45320;-80
2022/06/19 10:40:41;;;;;;;;;21.67;20.00;;;;;24.90;69.66;100616.84;5088061;27;48152;-79
2022/06/19 10:43:17;;;;;;;;;17.67;16.67;;;;;24.96;69.25;100610.31;5094906;27;45252;-79
2022/06/19 10:45:51;;;;;;;;;21.33;19.67;;;;;25.16;69.18;100605.91;5099633;27;45351;-79
2022/06/19 10:48:40;;;;;;;;;19.33;18.00;;;;;25.06;67.50;100606.75;5083875;27;45343;-79
2022/06/19 10:51:24;;;;;;;;;18.00;17.00;;;;;25.36;69.14;100601.50;5094188;27;46013;-82
2022/06/19 10:54:23;;;;;;;;;22.67;21.67;;;;;25.46;68.48;100603.34;5093379;27;45275;-80
2022/06/19 10:56:51;;;;;;;;;20.67;19.00;;;;;25.58;65.68;100608.47;5076899;27;45296;-79
2022/06/19 10:59:17;;;;;;;;;19.33;17.67;;;;;25.67;66.64;100595.94;5092242;27;44716;-81
2022/06/19 11:04:49;;;;;;;;;20.00;18.67;;;;;25.88;64.37;100604.00;5093062;27;45260;-79
2022/06/19 11:07:17;;;;;;;;;19.67;18.67;;;;;25.98;64.83;100592.25;5098001;27;44774;-77
2022/06/19 11:09:48;;;;;;;;;21.00;20.00;;;;;26.03;61.12;100584.03;5109045;27;45303;-79
2022/06/19 11:12:26;;;;;;;;;20.33;19.33;;;;;26.10;65.59;100603.56;5103435;27;45155;-80
2022/06/19 11:14:57;;;;;;;;;22.67;22.67;;;;;26.16;64.34;100579.03;5086965;27;45293;-81
2022/06/19 11:17:35;;;;;;;;;25.67;25.00;;;;;26.34;65.29;100588.47;5080275;28;45331;-84
2022/06/19 11:20:16;;;;;;;;;24.00;22.33;;;;;26.50;63.88;100594.59;5093892;27;45434;-81
2022/06/19 11:22:44;;;;;;;;;23.00;22.33;;;;;26.48;63.71;100580.44;5109969;27;46828;-79
2022/06/19 11:25:18;;;;;;;;;20.00;20.00;;;;;26.52;60.76;100589.69;5104678;27;45274;-80
2022/06/19 11:28:08;;;;;;;;;24.33;24.33;;;;;26.56;64.62;100585.28;5077947;27;45353;-83
2022/06/19 11:30:45;;;;;;;;;20.67;20.33;;;;;26.59;62.93;100576.53;5081643;27;46050;-84
2022/06/19 11:33:14;;;;;;;;;24.67;23.00;;;;;26.50;60.63;100558.34;5108846;27;45365;-81
2022/06/19 11:35:53;;;;;;;;;22.67;22.33;;;;;26.70;64.31;100585.41;5112327;27;45209;-80